createdAt,value
2022-10-14T00:01:00.867Z,1019
2022-10-14T00:03:01.346Z,1019
2022-10-14T00:05:02.373Z,1019
2022-10-14T00:07:01.108Z,1019
2022-10-14T00:10:58.170Z,1019
2022-10-14T00:12:59.033Z,1019
2022-10-14T00:15:01.467Z,1019
2022-10-14T00:16:58.196Z,1019
2022-10-14T00:18:59.038Z,1019
2022-10-14T00:21:02.469Z,1019
2022-10-14T00:23:00.989Z,1019
2022-10-14T00:25:02.901Z,1019
2022-10-14T00:26:59.322Z,1019
2022-10-14T00:29:02.023Z,1019
2022-10-14T00:31:01.281Z,1019
2022-10-14T00:33:00.828Z,1019
2022-10-14T00:34:57.312Z,1019
2022-10-14T00:37:02.171Z,1019
2022-10-14T00:39:00.026Z,1019
2022-10-14T00:41:01.740Z,1019
2022-10-14T00:42:59.891Z,1019
2022-10-14T00:44:59.436Z,1019
2022-10-14T00:47:01.346Z,1019
2022-10-14T00:48:57.387Z,1019
2022-10-14T00:50:59.454Z,1019
2022-10-14T00:53:00.300Z,1019
2022-10-14T00:54:58.035Z,1019
2022-10-14T00:57:00.903Z,1019
2022-10-14T00:59:00.520Z,1019
2022-10-14T01:00:57.699Z,1019
2022-10-14T01:03:00.656Z,1019
2022-10-14T01:04:59.405Z,1019
2022-10-14T01:07:00.932Z,1019
2022-10-14T01:10:59.112Z,1019
2022-10-14T01:13:01.559Z,1019
2022-10-14T01:14:58.037Z,1019
2022-10-14T01:17:01.766Z,1019
2022-10-14T01:18:58.047Z,1019
2022-10-14T01:20:57.702Z,1019
2022-10-14T01:23:02.510Z,1019
2022-10-14T01:25:00.036Z,1019
2022-10-14T01:27:01.037Z,1019
2022-10-14T01:28:58.112Z,1019
2022-10-14T01:30:57.729Z,1019
2022-10-14T01:35:01.961Z,1019
2022-10-14T01:36:59.075Z,1019
2022-10-14T01:39:01.789Z,1019
2022-10-14T01:40:59.502Z,1019
2022-10-14T01:43:01.739Z,1019
2022-10-14T01:45:00.518Z,1019
2022-10-14T01:46:59.103Z,1019
2022-10-14T01:49:01.615Z,1019
2022-10-14T01:51:01.735Z,1019
2022-10-14T01:53:01.318Z,1019
2022-10-14T01:54:59.080Z,1019
2022-10-14T01:58:59.484Z,1019
2022-10-14T02:01:00.449Z,1019
2022-10-14T02:05:01.582Z,1019
2022-10-14T02:07:00.457Z,1019
2022-10-14T02:08:59.441Z,1019
2022-10-14T02:11:02.515Z,1019
2022-10-14T02:12:59.062Z,1019
2022-10-14T02:15:00.622Z,1019
2022-10-14T02:17:01.711Z,1019
2022-10-14T02:18:57.709Z,1019
2022-10-14T02:20:58.077Z,1019
2022-10-14T02:22:59.134Z,1019
2022-10-14T02:24:58.093Z,1019
2022-10-14T02:27:00.980Z,1019
2022-10-14T02:28:59.181Z,1019
2022-10-14T02:31:01.858Z,1019
2022-10-14T02:33:00.902Z,1019
2022-10-14T02:34:59.971Z,1019
2022-10-14T02:37:01.274Z,1019
2022-10-14T02:38:59.445Z,1019
2022-10-14T02:40:59.834Z,1019
2022-10-14T02:43:01.410Z,1019
2022-10-14T02:44:59.478Z,1019
2022-10-14T02:47:01.859Z,1019
2022-10-14T02:49:01.626Z,1019
2022-10-14T02:51:00.409Z,1019
2022-10-14T02:53:00.257Z,1019
2022-10-14T02:54:58.155Z,1019
2022-10-14T02:56:59.440Z,1019
2022-10-14T02:59:00.759Z,1019
2022-10-14T03:01:00.907Z,1019
2022-10-14T03:02:59.127Z,1019
2022-10-14T03:05:00.552Z,1019
2022-10-14T03:06:58.148Z,1019
2022-10-14T03:10:59.099Z,1019
2022-10-14T03:12:57.747Z,1019
2022-10-14T03:14:59.136Z,1019
2022-10-14T03:16:59.970Z,1019
2022-10-14T03:19:00.483Z,1019
2022-10-14T03:21:02.478Z,1019
2022-10-14T03:22:57.773Z,1019
2022-10-14T03:24:59.070Z,1019
2022-10-14T03:27:02.212Z,1019
2022-10-14T03:28:59.590Z,1019
2022-10-14T03:30:59.486Z,1019
2022-10-14T03:33:00.931Z,1019
2022-10-14T03:35:01.329Z,1019
2022-10-14T03:36:59.195Z,1019
2022-10-14T03:39:00.071Z,1019
2022-10-14T03:41:01.929Z,1019
2022-10-14T03:43:00.743Z,1019
2022-10-14T03:44:59.093Z,1019
2022-10-14T03:47:01.962Z,1019
2022-10-14T03:48:59.900Z,1019
2022-10-14T03:51:00.786Z,1019
2022-10-14T03:52:57.872Z,1019
2022-10-14T03:55:01.364Z,1019
2022-10-14T03:57:01.229Z,1019
2022-10-14T03:59:01.891Z,1019
2022-10-14T04:01:01.144Z,1019
2022-10-14T04:02:59.964Z,1018
2022-10-14T04:05:01.378Z,1018
2022-10-14T04:07:02.848Z,1018
2022-10-14T04:09:02.192Z,1018
2022-10-14T04:10:57.757Z,1018
2022-10-14T04:13:01.849Z,1018
2022-10-14T04:15:01.742Z,1018
2022-10-14T04:16:59.175Z,1018
2022-10-14T04:19:01.997Z,1018
2022-10-14T04:21:01.593Z,1018
2022-10-14T04:23:00.586Z,1018
2022-10-14T04:25:00.964Z,1018
2022-10-14T04:26:59.501Z,1018
2022-10-14T04:29:01.540Z,1018
2022-10-14T04:31:01.337Z,1018
2022-10-14T04:32:59.455Z,1018
2022-10-14T04:34:58.168Z,1018
2022-10-14T04:37:01.633Z,1018
2022-10-14T04:39:01.615Z,1018
2022-10-14T04:41:01.013Z,1018
2022-10-14T04:42:59.503Z,1018
2022-10-14T04:45:01.774Z,1018
2022-10-14T04:46:57.735Z,1018
2022-10-14T04:49:01.731Z,1018
2022-10-14T04:51:02.265Z,1018
2022-10-14T04:53:00.397Z,1018
2022-10-14T04:55:00.038Z,1018
2022-10-14T04:57:01.830Z,1018
2022-10-14T04:58:57.772Z,1018
2022-10-14T05:00:59.463Z,1018
2022-10-14T05:03:00.601Z,1018
2022-10-14T05:05:02.314Z,1018
2022-10-14T05:07:01.656Z,1018
2022-10-14T05:09:00.481Z,1018
2022-10-14T05:11:01.652Z,1018
2022-10-14T05:13:01.959Z,1018
2022-10-14T05:14:59.533Z,1018
2022-10-14T05:17:00.974Z,1018
2022-10-14T05:19:01.592Z,1018
2022-10-14T05:21:02.624Z,1018
2022-10-14T05:23:01.960Z,1018
2022-10-14T05:25:00.030Z,1018
2022-10-14T05:27:02.238Z,1018
2022-10-14T05:28:58.081Z,1018
2022-10-14T05:33:01.318Z,1018
2022-10-14T05:34:57.755Z,1018
2022-10-14T05:36:59.139Z,1018
2022-10-14T05:38:58.141Z,1018
2022-10-14T05:41:01.504Z,1018
2022-10-14T05:44:58.516Z,1018
2022-10-14T05:47:02.317Z,1018
2022-10-14T05:48:57.834Z,1018
2022-10-14T05:51:00.538Z,1018
2022-10-14T05:52:57.425Z,1018
2022-10-14T05:54:59.174Z,1018
2022-10-14T05:57:00.634Z,1018
2022-10-14T05:59:01.415Z,1018
2022-10-14T06:00:57.775Z,1018
2022-10-14T06:02:57.822Z,1018
2022-10-14T06:05:02.022Z,1018
2022-10-14T06:06:57.800Z,1018
2022-10-14T06:09:01.329Z,1018
2022-10-14T06:11:00.078Z,1018
2022-10-14T06:13:02.277Z,1018
2022-10-14T06:15:00.052Z,1018
2022-10-14T06:17:00.540Z,1018
2022-10-14T06:21:00.096Z,1018
2022-10-14T06:23:02.286Z,1018
2022-10-14T06:25:04.384Z,1018
2022-10-14T06:26:59.627Z,1018
2022-10-14T06:28:59.206Z,1018
2022-10-14T06:31:01.969Z,1018
2022-10-14T06:33:01.923Z,1018
2022-10-14T06:35:02.326Z,1018
2022-10-14T06:37:02.031Z,1018
2022-10-14T06:39:01.812Z,1018
2022-10-14T06:41:00.998Z,1018
2022-10-14T06:42:59.192Z,1018
2022-10-14T06:45:01.803Z,1018
2022-10-14T06:46:57.822Z,1018
2022-10-14T06:48:57.457Z,1018
2022-10-14T06:50:57.878Z,1018
2022-10-14T06:55:00.134Z,1018
2022-10-14T06:57:02.121Z,1018
2022-10-14T06:58:57.833Z,1018
2022-10-14T07:00:59.790Z,1018
2022-10-14T07:03:02.582Z,1018
2022-10-14T07:07:01.580Z,1018
2022-10-14T07:09:02.528Z,1018
2022-10-14T07:11:01.679Z,1018
2022-10-14T07:12:59.318Z,1018
2022-10-14T07:14:58.167Z,1018
2022-10-14T07:17:01.400Z,1018
2022-10-14T07:19:00.014Z,1018
2022-10-14T07:21:00.054Z,1018
2022-10-14T07:22:59.843Z,1018
2022-10-14T07:24:59.461Z,1018
2022-10-14T07:27:01.060Z,1018
2022-10-14T07:29:01.870Z,1018
2022-10-14T07:31:02.173Z,1018
2022-10-14T07:33:01.966Z,1018
2022-10-14T07:35:02.718Z,1018
2022-10-14T07:37:01.326Z,1018
2022-10-14T07:39:01.447Z,1018
2022-10-14T07:41:01.779Z,1018
2022-10-14T07:43:00.810Z,1018
2022-10-14T07:44:57.817Z,1018
2022-10-14T07:47:01.497Z,1018
2022-10-14T07:49:00.086Z,1018
2022-10-14T07:50:59.235Z,1018
2022-10-14T07:53:01.497Z,1018
2022-10-14T07:55:02.260Z,1018
2022-10-14T07:57:02.364Z,1018
2022-10-14T07:59:01.386Z,1018
2022-10-14T08:01:01.415Z,1018
2022-10-14T08:03:01.430Z,1018
2022-10-14T08:05:08.413Z,1018
2022-10-14T08:06:59.201Z,1018
2022-10-14T08:08:57.405Z,1018
2022-10-14T08:11:01.457Z,1018
2022-10-14T08:13:01.758Z,1018
2022-10-14T08:14:59.584Z,1018
2022-10-14T08:17:02.083Z,1018
2022-10-14T08:19:00.445Z,1018
2022-10-14T08:21:00.815Z,1018
2022-10-14T08:22:59.229Z,1018
2022-10-14T08:25:00.389Z,1018
2022-10-14T08:27:01.451Z,1018
2022-10-14T08:29:01.434Z,1018
2022-10-14T08:31:01.508Z,1018
2022-10-14T08:34:04.706Z,1018
2022-10-14T08:39:03.034Z,1018
2022-10-14T08:43:42.868Z,1018
2022-10-14T08:45:42.930Z,1018
2022-10-14T08:47:44.893Z,1018
2022-10-14T08:49:41.759Z,1018
2022-10-14T08:51:41.977Z,1018
2022-10-14T08:55:44.524Z,1018
2022-10-14T08:57:43.283Z,1018
2022-10-14T08:59:45.454Z,1018
2022-10-14T09:01:44.481Z,1018
2022-10-14T09:03:44.439Z,1018
2022-10-14T09:05:45.375Z,1018
2022-10-14T09:09:44.718Z,1018
2022-10-14T09:11:45.100Z,1017
2022-10-14T09:13:42.263Z,1017
2022-10-14T09:15:44.781Z,1017
2022-10-14T09:19:44.410Z,1017
2022-10-14T09:21:52.033Z,1017
2022-10-14T09:23:42.983Z,1017
2022-10-14T09:25:43.878Z,1017
2022-10-14T09:27:42.318Z,1017
2022-10-14T09:29:45.612Z,1017
2022-10-14T09:31:41.316Z,1017
2022-10-14T09:33:42.444Z,1017
2022-10-14T09:35:45.524Z,1017
2022-10-14T09:37:43.332Z,1017
2022-10-14T09:39:42.882Z,1017
2022-10-14T09:41:45.121Z,1017
2022-10-14T09:43:43.849Z,1017
2022-10-14T09:45:43.585Z,1017
2022-10-14T09:47:44.979Z,1017
2022-10-14T09:49:42.071Z,1017
2022-10-14T09:51:45.570Z,1017
2022-10-14T09:55:39.206Z,1017
2022-10-14T09:57:42.948Z,1017
2022-10-14T09:59:43.963Z,1017
2022-10-14T10:01:42.111Z,1017
2022-10-14T10:03:40.355Z,1017
2022-10-14T10:05:41.967Z,1017
2022-10-14T10:07:40.816Z,1017
2022-10-14T10:09:44.189Z,1017
2022-10-14T10:11:44.414Z,1017
2022-10-14T10:13:40.775Z,1017
2022-10-14T10:15:41.994Z,1017
2022-10-14T10:17:41.702Z,1017
2022-10-14T10:19:42.367Z,1017
2022-10-14T10:21:43.061Z,1017
2022-10-14T10:23:41.315Z,1017
2022-10-14T10:25:40.615Z,1017
2022-10-14T10:27:40.282Z,1017
2022-10-14T10:29:43.483Z,1017
2022-10-14T10:31:45.187Z,1017
2022-10-14T10:33:43.305Z,1017
2022-10-14T10:35:43.795Z,1017
2022-10-14T10:37:42.153Z,1017
2022-10-14T10:39:41.303Z,1017
2022-10-14T10:41:44.697Z,1017
2022-10-14T10:43:40.663Z,1017
2022-10-14T10:45:44.814Z,1017
2022-10-14T10:47:44.213Z,1017
2022-10-14T10:49:45.294Z,1017
2022-10-14T10:51:42.070Z,1017
2022-10-14T10:53:44.807Z,1017
2022-10-14T10:55:42.943Z,1017
2022-10-14T10:57:42.068Z,1017
2022-10-14T10:59:43.131Z,1017
2022-10-14T11:01:45.172Z,1017
2022-10-14T11:03:42.929Z,1017
2022-10-14T11:05:43.407Z,1017
2022-10-14T11:07:43.467Z,1016
2022-10-14T11:09:43.390Z,1016
2022-10-14T11:11:44.372Z,1016
2022-10-14T11:13:44.628Z,1016
2022-10-14T11:15:41.680Z,1016
2022-10-14T11:17:43.977Z,1016
2022-10-14T11:19:42.350Z,1016
2022-10-14T11:21:44.913Z,1016
2022-10-14T11:23:45.425Z,1016
2022-10-14T11:25:43.920Z,1016
2022-10-14T11:27:44.754Z,1016
2022-10-14T11:29:45.795Z,1016
2022-10-14T11:31:45.492Z,1016
2022-10-14T11:33:42.913Z,1016
2022-10-14T11:35:45.425Z,1016
2022-10-14T11:37:43.874Z,1016
2022-10-14T11:39:42.066Z,1016
2022-10-14T11:43:43.913Z,1016
2022-10-14T11:45:45.012Z,1016
2022-10-14T11:49:42.471Z,1016
2022-10-14T11:51:42.292Z,1016
2022-10-14T11:53:42.111Z,1016
2022-10-14T11:55:44.369Z,1016
2022-10-14T11:57:43.092Z,1016
2022-10-14T11:59:44.985Z,1016
2022-10-14T12:01:43.903Z,1016
2022-10-14T12:03:44.524Z,1016
2022-10-14T12:05:42.083Z,1016
2022-10-14T12:07:44.031Z,1016
2022-10-14T12:09:40.416Z,1016
2022-10-14T12:11:40.363Z,1016
2022-10-14T12:13:45.552Z,1016
2022-10-14T12:15:44.809Z,1016
2022-10-14T12:17:42.013Z,1016
2022-10-14T12:19:43.140Z,1016
2022-10-14T12:21:46.816Z,1016
2022-10-14T12:23:43.912Z,1016
2022-10-14T12:25:42.899Z,1015
2022-10-14T12:27:44.359Z,1016
2022-10-14T12:29:43.959Z,1016
2022-10-14T12:31:41.849Z,1016
2022-10-14T12:33:45.153Z,1016
2022-10-14T12:35:44.813Z,1016
2022-10-14T12:37:41.703Z,1016
2022-10-14T12:39:44.082Z,1016
2022-10-14T12:41:40.330Z,1015
2022-10-14T12:43:41.302Z,1016
2022-10-14T12:47:42.951Z,1016
2022-10-14T12:49:41.717Z,1015
2022-10-14T12:51:44.755Z,1015
2022-10-14T12:53:39.998Z,1015
2022-10-14T12:55:42.017Z,1015
2022-10-14T12:57:42.170Z,1015
2022-10-14T12:59:43.557Z,1015
2022-10-14T13:01:42.194Z,1015
2022-10-14T13:03:39.941Z,1015
2022-10-14T13:05:40.302Z,1015
2022-10-14T13:07:44.723Z,1015
2022-10-14T13:09:40.342Z,1015
2022-10-14T13:11:40.296Z,1015
2022-10-14T13:13:44.892Z,1015
2022-10-14T13:15:44.458Z,1015
2022-10-14T13:17:43.109Z,1015
2022-10-14T13:19:44.717Z,1015
2022-10-14T13:23:43.841Z,1015
2022-10-14T13:25:40.341Z,1015
2022-10-14T13:27:43.869Z,1015
2022-10-14T13:29:43.556Z,1015
2022-10-14T13:31:44.409Z,1015
2022-10-14T13:33:43.534Z,1015
2022-10-14T13:35:44.256Z,1015
2022-10-14T13:37:46.076Z,1015
2022-10-14T13:39:41.366Z,1015
2022-10-14T13:41:43.124Z,1015
2022-10-14T13:45:42.452Z,1015
2022-10-14T13:47:42.495Z,1015
2022-10-14T13:51:41.728Z,1015
2022-10-14T13:53:43.171Z,1015
2022-10-14T13:55:44.143Z,1015
2022-10-14T13:58:07.764Z,1015
2022-10-14T14:00:03.244Z,1015
2022-10-14T14:01:43.940Z,1015
2022-10-14T14:03:44.767Z,1015
2022-10-14T14:05:42.390Z,1015
2022-10-14T14:08:22.011Z,1015
2022-10-14T14:09:41.840Z,1015
2022-10-14T14:11:43.504Z,1015
2022-10-14T14:13:48.220Z,1015
2022-10-14T14:15:40.325Z,1015
2022-10-14T14:17:45.393Z,1015
2022-10-14T14:19:41.821Z,1015
2022-10-14T14:21:40.740Z,1015
2022-10-14T14:23:42.329Z,1015
2022-10-14T14:26:07.376Z,1015
2022-10-14T14:27:44.549Z,1015
2022-10-14T14:29:42.458Z,1015
2022-10-14T14:32:06.972Z,1015
2022-10-14T14:33:40.690Z,1015
2022-10-14T14:35:45.012Z,1015
2022-10-14T14:37:54.899Z,1015
2022-10-14T14:39:43.498Z,1015
2022-10-14T14:41:43.907Z,1015
2022-10-14T14:43:47.236Z,1015
2022-10-14T14:45:41.717Z,1015
2022-10-14T14:47:43.183Z,1015
2022-10-14T14:49:43.503Z,1015
2022-10-14T14:51:41.764Z,1015
2022-10-14T14:53:42.459Z,1015
2022-10-14T14:55:44.876Z,1015
2022-10-14T14:57:41.509Z,1015
2022-10-14T14:59:40.256Z,1015
2022-10-14T15:01:44.961Z,1015
2022-10-14T15:04:11.669Z,1015
2022-10-14T15:05:43.422Z,1015
2022-10-14T15:07:44.405Z,1015
2022-10-14T15:10:50.892Z,1015
2022-10-14T15:12:48.300Z,1015
2022-10-14T15:14:48.686Z,1015
2022-10-14T15:18:48.602Z,1015
2022-10-14T15:20:49.726Z,1015
2022-10-14T15:22:50.661Z,1015
2022-10-14T15:24:45.462Z,1015
2022-10-14T15:26:50.570Z,1015
2022-10-14T15:28:50.299Z,1015
2022-10-14T15:30:49.574Z,1015
2022-10-14T15:32:48.847Z,1015
2022-10-14T15:34:49.804Z,1015
2022-10-14T15:36:46.940Z,1014
2022-10-14T15:38:49.712Z,1014
2022-10-14T15:42:46.725Z,1015
2022-10-14T15:44:46.984Z,1015
2022-10-14T15:46:50.680Z,1015
2022-10-14T15:48:48.279Z,1015
2022-10-14T15:50:50.395Z,1015
2022-10-14T15:52:50.331Z,1015
2022-10-14T15:54:48.145Z,1015
2022-10-14T15:56:48.359Z,1015
2022-10-14T15:58:50.450Z,1015
2022-10-14T16:00:45.174Z,1015
2022-10-14T16:02:50.247Z,1015
2022-10-14T16:05:14.984Z,1014
2022-10-14T16:06:49.971Z,1014
2022-10-14T16:08:50.078Z,1014
2022-10-14T16:10:49.847Z,1015
2022-10-14T16:12:48.183Z,1014
2022-10-14T16:14:45.989Z,1014
2022-10-14T16:16:49.919Z,1014
2022-10-14T16:18:48.333Z,1014
2022-10-14T16:20:50.098Z,1014
2022-10-14T16:22:49.789Z,1014
2022-10-14T16:24:46.950Z,1014
2022-10-14T16:26:49.642Z,1014
2022-10-14T16:28:50.457Z,1014
2022-10-14T16:30:49.197Z,1014
2022-10-14T16:32:50.960Z,1014
2022-10-14T16:36:47.825Z,1014
2022-10-14T16:38:49.290Z,1014
2022-10-14T16:40:48.228Z,1014
2022-10-14T16:42:49.720Z,1014
2022-10-14T16:44:49.149Z,1014
2022-10-14T16:46:50.082Z,1014
2022-10-14T16:48:48.257Z,1014
2022-10-14T16:50:49.290Z,1014
2022-10-14T16:52:50.718Z,1014
2022-10-14T16:54:47.898Z,1014
2022-10-14T16:56:49.633Z,1015
2022-10-14T16:58:49.833Z,1015
2022-10-14T17:00:50.507Z,1014
2022-10-14T17:02:47.857Z,1015
2022-10-14T17:04:50.271Z,1014
2022-10-14T17:06:49.097Z,1015
2022-10-14T17:08:48.269Z,1015
2022-10-14T17:10:50.421Z,1014
2022-10-14T17:14:48.245Z,1014
2022-10-14T17:16:50.671Z,1015
2022-10-14T17:18:50.110Z,1015
2022-10-14T17:20:48.577Z,1015
2022-10-14T17:24:47.810Z,1015
2022-10-14T17:26:49.156Z,1014
2022-10-14T17:28:50.640Z,1015
2022-10-14T17:30:46.875Z,1014
2022-10-14T17:32:49.332Z,1014
2022-10-14T17:34:53.216Z,1014
2022-10-14T17:36:49.134Z,1014
2022-10-14T17:38:49.178Z,1014
2022-10-14T17:40:50.429Z,1014
2022-10-14T17:42:48.151Z,1014
2022-10-14T17:44:49.518Z,1014
2022-10-14T17:46:50.391Z,1014
2022-10-14T17:48:48.247Z,1014
2022-10-14T17:50:49.081Z,1014
2022-10-14T17:52:50.595Z,1014
2022-10-14T17:54:48.782Z,1014
2022-10-14T17:56:48.401Z,1015
2022-10-14T17:58:50.474Z,1015
2022-10-14T18:00:47.873Z,1014
2022-10-14T18:02:46.998Z,1015
2022-10-14T18:04:52.130Z,1015
2022-10-14T18:06:48.123Z,1015
2022-10-14T18:08:49.420Z,1015
2022-10-14T18:10:50.452Z,1015
2022-10-14T18:12:45.545Z,1015
2022-10-14T18:14:50.090Z,1015
2022-10-14T18:16:50.474Z,1015
2022-10-14T18:18:49.352Z,1015
2022-10-14T18:20:49.243Z,1015
2022-10-14T18:24:48.545Z,1015
2022-10-14T18:26:48.168Z,1015
2022-10-14T18:28:51.168Z,1015
2022-10-14T18:30:48.394Z,1014
2022-10-14T18:32:48.894Z,1014
2022-10-14T18:36:48.617Z,1014
2022-10-14T18:38:49.019Z,1014
2022-10-14T18:40:51.235Z,1014
2022-10-14T18:42:45.157Z,1014
2022-10-14T18:44:49.145Z,1014
2022-10-14T18:46:50.229Z,1014
2022-10-14T18:48:48.339Z,1014
2022-10-14T18:50:47.005Z,1014
2022-10-14T18:52:50.788Z,1014
2022-10-14T18:54:48.387Z,1014
2022-10-14T18:56:50.092Z,1014
2022-10-14T19:00:48.370Z,1014
2022-10-14T19:02:48.830Z,1014
2022-10-14T19:06:48.355Z,1014
2022-10-14T19:08:50.489Z,1014
2022-10-14T19:10:50.863Z,1014
2022-10-14T19:12:49.476Z,1014
2022-10-14T19:14:46.557Z,1014
2022-10-14T19:16:50.717Z,1014
2022-10-14T19:18:48.251Z,1014
2022-10-14T19:22:54.294Z,1014
2022-10-14T19:24:46.897Z,1014
2022-10-14T19:26:49.726Z,1014
2022-10-14T19:28:50.875Z,1014
2022-10-14T19:30:47.248Z,1014
2022-10-14T19:32:46.977Z,1014
2022-10-14T19:34:50.545Z,1014
2022-10-14T19:36:46.859Z,1014
2022-10-14T19:38:47.958Z,1014
2022-10-14T19:40:50.393Z,1014
2022-10-14T19:42:49.184Z,1014
2022-10-14T19:44:47.604Z,1014
2022-10-14T19:46:50.422Z,1014
2022-10-14T19:48:49.090Z,1014
2022-10-14T19:50:49.195Z,1014
2022-10-14T19:52:51.500Z,1014
2022-10-14T19:54:48.319Z,1014
2022-10-14T19:56:49.228Z,1014
2022-10-14T20:00:49.117Z,1014
2022-10-14T20:02:48.702Z,1014
2022-10-14T20:06:48.109Z,1014
2022-10-14T20:08:47.321Z,1014
2022-10-14T20:10:50.526Z,1014
2022-10-14T20:12:49.688Z,1014
2022-10-14T20:14:47.021Z,1014
2022-10-14T20:16:52.259Z,1014
2022-10-14T20:18:50.313Z,1014
2022-10-14T20:20:49.600Z,1014
2022-10-14T20:24:49.578Z,1014
2022-10-14T20:26:49.075Z,1014
2022-10-14T20:28:50.652Z,1014
2022-10-14T20:30:49.142Z,1014
2022-10-14T20:32:50.152Z,1014
2022-10-14T20:34:49.665Z,1014
2022-10-14T20:36:49.847Z,1013
2022-10-14T20:38:45.567Z,1013
2022-10-14T20:40:51.120Z,1014
2022-10-14T20:42:48.511Z,1013
2022-10-14T20:44:50.219Z,1013
2022-10-14T20:48:48.769Z,1013
2022-10-14T20:50:48.535Z,1013
2022-10-14T20:54:46.103Z,1013
2022-10-14T20:56:48.350Z,1013
2022-10-14T20:58:50.293Z,1013
2022-10-14T21:00:45.947Z,1013
2022-10-14T21:02:49.930Z,1013
2022-10-14T21:04:50.316Z,1013
2022-10-14T21:06:48.193Z,1013
2022-10-14T21:08:48.523Z,1013
2022-10-14T21:10:50.662Z,1013
2022-10-14T21:12:48.657Z,1013
2022-10-14T21:16:50.715Z,1013
2022-10-14T21:18:45.303Z,1013
2022-10-14T21:20:45.660Z,1013
2022-10-14T21:22:50.679Z,1013
2022-10-14T21:24:49.258Z,1013
2022-10-14T21:26:49.779Z,1013
2022-10-14T21:30:49.678Z,1013
2022-10-14T21:32:49.356Z,1013
2022-10-14T21:34:50.073Z,1013
2022-10-14T21:36:47.014Z,1013
2022-10-14T21:38:47.420Z,1013
2022-10-14T21:42:47.422Z,1013
2022-10-14T21:44:49.288Z,1013
2022-10-14T21:46:50.940Z,1013
2022-10-14T21:48:47.005Z,1013
2022-10-14T21:50:46.997Z,1013
2022-10-14T21:52:49.409Z,1013
2022-10-14T21:54:45.574Z,1013
2022-10-14T21:58:49.117Z,1013
2022-10-14T22:00:49.666Z,1013
2022-10-14T22:02:49.152Z,1013
2022-10-14T22:04:50.373Z,1013
2022-10-14T22:06:47.997Z,1013
2022-10-14T22:08:48.676Z,1013
2022-10-14T22:10:49.229Z,1013
2022-10-14T22:12:48.347Z,1012
2022-10-14T22:16:50.973Z,1012
2022-10-14T22:18:45.640Z,1012
2022-10-14T22:20:49.883Z,1012
2022-10-14T22:24:47.334Z,1012
2022-10-14T22:26:49.669Z,1012
2022-10-14T22:28:48.390Z,1012
2022-10-14T22:30:49.290Z,1012
2022-10-14T22:32:48.193Z,1012
2022-10-14T22:34:50.432Z,1012
2022-10-14T22:36:49.919Z,1012
2022-10-14T22:38:48.801Z,1012
2022-10-14T22:40:50.383Z,1012
2022-10-14T22:42:49.133Z,1012
2022-10-14T22:44:46.937Z,1012
2022-10-14T22:46:50.704Z,1012
2022-10-14T22:48:50.570Z,1012
2022-10-14T22:50:45.994Z,1012
2022-10-14T22:52:50.532Z,1012
2022-10-14T22:54:50.151Z,1012
2022-10-14T22:56:47.410Z,1012
2022-10-14T22:58:50.596Z,1012
2022-10-14T23:00:50.711Z,1012
2022-10-14T23:02:47.956Z,1012
2022-10-14T23:04:50.567Z,1012
2022-10-14T23:06:50.022Z,1012
2022-10-14T23:08:49.229Z,1012
2022-10-14T23:10:49.917Z,1012
2022-10-14T23:12:49.674Z,1012
2022-10-14T23:14:48.276Z,1012
2022-10-14T23:16:50.717Z,1012
2022-10-14T23:18:47.333Z,1012
2022-10-14T23:20:51.038Z,1012
2022-10-14T23:24:48.731Z,1012
2022-10-14T23:26:51.285Z,1012
2022-10-14T23:28:50.419Z,1012
2022-10-14T23:30:49.685Z,1012
2022-10-14T23:32:50.030Z,1012
2022-10-14T23:34:50.805Z,1012
2022-10-14T23:36:48.777Z,1012
2022-10-14T23:38:50.254Z,1012
2022-10-14T23:40:51.004Z,1012
2022-10-14T23:42:46.990Z,1012
2022-10-14T23:44:49.793Z,1012
2022-10-14T23:48:51.500Z,1012
2022-10-14T23:50:50.417Z,1012
2022-10-14T23:52:50.507Z,1012
2022-10-14T23:54:45.616Z,1012
2022-10-14T23:56:47.398Z,1012
2022-10-14T23:58:50.533Z,1012
